Terminal Aerodrome Forecast
Issued by NWS Louisville, KY

Home | Current Version | Previous Version | Text Only | Print | Product List | Glossary On
Versions: 1 2 3 4 5 6 7 8 9 10 11 12 13 14 15 16 17 18
000
FTUS43 KLMK 250500
TAFLEX
TAF
KLEX 250529Z 2506/2606 25012KT P6SM VCSH BKN018
      TEMPO 2506/2509 SCT015 BKN040
     FM251100 25010KT P6SM BKN018
     FM251800 24010KT P6SM BKN022
     FM252000 22009KT P6SM SCT025
     FM260000 18006KT P6SM SKC=

USA.gov is the U.S. government's official web portal to all federal, state and local government web resources and services.